Time;durP1;ratioP1;P1;durP2;ratioP2;P2;SDS_P1;SDS_P2;PMS_P1;PMS_P2;Temp;Humidity;BMP_temperature;BMP_pressure;BME280_temperature;BME280_humidity;BME280_pressure;Samples;Min_cycle;Max_cycle;Signal;HPM_P1;HPM_P2
2023/01/05 00:01:46;;;;;;;1.57;1.40;;;9.30;99.90;;;;;;5009545;28;20184;-79
2023/01/05 00:04:13;;;;;;;1.50;1.40;;;9.30;99.90;;;;;;5010603;28;20186;-78
2023/01/05 00:06:39;;;;;;;2.20;1.40;;;9.30;99.90;;;;;;5010745;28;20205;-80
2023/01/05 00:09:06;;;;;;;2.87;1.40;;;9.30;99.90;;;;;;5012090;28;20174;-78
2023/01/05 00:22:47;;;;;;;1.67;1.20;;;9.50;99.90;;;;;;5011413;28;20244;-78
2023/01/05 00:25:15;;;;;;;3.33;1.30;;;9.50;99.90;;;;;;5012243;28;20565;-78
2023/01/05 00:27:43;;;;;;;1.33;1.00;;;9.60;99.90;;;;;;5076502;22;20250;-86
2023/01/05 00:30:10;;;;;;;2.00;1.30;;;9.60;99.90;;;;;;4993780;28;20295;-82
2023/01/05 00:32:36;;;;;;;1.73;1.30;;;9.60;99.90;;;;;;4992907;28;20275;-82
2023/01/05 00:35:02;;;;;;;2.90;1.07;;;9.60;99.90;;;;;;4992238;28;20202;-83
2023/01/05 00:37:31;;;;;;;2.47;1.30;;;9.60;99.90;;;;;;4992766;28;20203;-83
2023/01/05 00:39:57;;;;;;;1.33;1.10;;;9.60;99.90;;;;;;4993544;28;20649;-82
2023/01/05 00:42:23;;;;;;;1.37;1.10;;;9.60;99.90;;;;;;4996710;28;20180;-82
2023/01/05 00:44:48;;;;;;;1.57;1.20;;;9.60;99.90;;;;;;4995758;28;20629;-82
2023/01/05 00:47:14;;;;;;;2.23;1.13;;;9.60;99.90;;;;;;4995898;28;20246;-85
2023/01/05 00:49:40;;;;;;;2.03;1.10;;;9.60;99.90;;;;;;4995589;28;20658;-82
2023/01/05 00:52:06;;;;;;;1.87;1.20;;;9.70;99.90;;;;;;4995775;28;20209;-82
2023/01/05 00:54:31;;;;;;;1.57;1.20;;;9.70;99.90;;;;;;4995205;28;20203;-82
2023/01/05 00:56:57;;;;;;;2.30;1.20;;;9.80;99.90;;;;;;4995780;28;20206;-82
2023/01/05 00:59:23;;;;;;;1.53;1.30;;;9.80;99.90;;;;;;4995497;28;20171;-82
2023/01/05 01:01:50;;;;;;;2.53;1.27;;;9.80;99.90;;;;;;4996634;28;20175;-82
2023/01/05 01:04:16;;;;;;;1.37;1.17;;;9.80;99.90;;;;;;4996383;28;20183;-82
2023/01/05 01:06:42;;;;;;;1.53;1.20;;;9.80;99.90;;;;;;4996771;28;20290;-82
2023/01/05 01:09:08;;;;;;;1.23;1.10;;;9.80;99.90;;;;;;4996743;28;20201;-82
2023/01/05 01:11:34;;;;;;;1.23;1.00;;;9.80;99.90;;;;;;4996952;28;20171;-82
2023/01/05 01:13:59;;;;;;;1.20;1.10;;;9.90;99.90;;;;;;4996670;28;20516;-82
2023/01/05 01:16:25;;;;;;;1.20;1.10;;;9.90;99.90;;;;;;4995407;28;20193;-82
2023/01/05 01:18:51;;;;;;;2.13;1.10;;;9.90;99.90;;;;;;4996642;28;20210;-82
2023/01/05 01:21:16;;;;;;;1.87;1.20;;;9.90;99.90;;;;;;4996549;28;20177;-82
2023/01/05 01:23:42;;;;;;;1.00;0.90;;;9.90;99.90;;;;;;4994848;28;20186;-82
2023/01/05 01:26:10;;;;;;;1.47;1.10;;;9.90;99.90;;;;;;4996312;28;20199;-82
2023/01/05 01:28:36;;;;;;;2.37;1.23;;;9.90;99.90;;;;;;4997336;28;20211;-83
2023/01/05 01:31:03;;;;;;;1.73;1.03;;;9.90;99.90;;;;;;4996381;28;20211;-85
2023/01/05 01:33:29;;;;;;;0.90;0.90;;;9.90;99.90;;;;;;4997147;28;20183;-82
2023/01/05 01:35:55;;;;;;;2.40;1.00;;;9.90;99.90;;;;;;4996654;28;20233;-83
2023/01/05 01:38:21;;;;;;;1.60;0.97;;;10.00;99.90;;;;;;4996751;28;20667;-82
2023/01/05 01:40:47;;;;;;;2.17;0.90;;;10.00;99.90;;;;;;4998489;28;20182;-82
2023/01/05 01:43:15;;;;;;;1.73;0.90;;;10.10;99.90;;;;;;4997789;28;20187;-82
2023/01/05 01:45:41;;;;;;;2.53;0.83;;;10.10;99.90;;;;;;4997133;28;20199;-84
2023/01/05 01:48:10;;;;;;;3.57;1.20;;;10.10;99.90;;;;;;4996729;28;20199;-82
2023/01/05 01:50:40;;;;;;;3.27;1.13;;;10.20;99.90;;;;;;4997227;28;20203;-82
2023/01/05 01:53:12;;;;;;;4.07;1.10;;;10.20;99.90;;;;;;4997899;28;20199;-82
2023/01/05 01:55:39;;;;;;;5.23;1.00;;;10.20;99.90;;;;;;4998650;28;20183;-82
2023/01/05 01:58:10;;;;;;;3.07;1.20;;;10.30;99.90;;;;;;4999284;28;20561;-82
2023/01/05 02:00:38;;;;;;;2.43;1.30;;;10.30;99.90;;;;;;4999501;28;20188;-84
2023/01/05 02:03:04;;;;;;;4.70;1.30;;;10.20;99.90;;;;;;4997184;28;20208;-84
2023/01/05 02:05:32;;;;;;;3.87;1.10;;;10.20;99.90;;;;;;4998754;28;20204;-83
2023/01/05 02:07:58;;;;;;;5.20;1.10;;;10.20;99.90;;;;;;4999269;28;20199;-83
2023/01/05 02:10:48;;;;;;;4.43;1.20;;;10.20;99.90;;;;;;4998841;28;20190;-83
2023/01/05 02:13:27;;;;;;;5.23;1.30;;;10.20;99.90;;;;;;4998580;28;20180;-81
2023/01/05 02:16:15;;;;;;;5.77;1.40;;;10.20;99.90;;;;;;4997023;28;20179;-81
2023/01/05 02:18:56;;;;;;;3.40;1.23;;;10.20;99.90;;;;;;4997573;28;20219;-82
2023/01/05 02:21:46;;;;;;;4.20;1.37;;;10.10;99.90;;;;;;4997448;28;20175;-82
2023/01/05 02:24:48;;;;;;;3.60;1.47;;;10.10;99.90;;;;;;4993312;28;20183;-81
2023/01/05 02:27:42;;;;;;;3.70;1.20;;;10.00;99.90;;;;;;4994719;28;20211;-81
2023/01/05 02:30:19;;;;;;;3.87;1.53;;;10.00;99.90;;;;;;4993725;28;20171;-81
2023/01/05 02:32:47;;;;;;;3.90;1.00;;;10.00;99.90;;;;;;4992911;28;20178;-82
2023/01/05 02:35:36;;;;;;;4.60;1.30;;;10.00;99.90;;;;;;4993654;28;20629;-82
2023/01/05 02:38:19;;;;;;;4.03;1.40;;;10.00;99.90;;;;;;4994790;28;20195;-81
2023/01/05 02:40:48;;;;;;;4.97;1.00;;;10.00;99.90;;;;;;4993686;28;20211;-85
2023/01/05 02:43:19;;;;;;;2.40;1.27;;;10.00;99.90;;;;;;4993286;28;20266;-82
2023/01/05 02:45:45;;;;;;;3.57;1.30;;;10.00;99.90;;;;;;4993609;28;20203;-81
2023/01/05 02:48:11;;;;;;;5.93;1.30;;;10.00;99.90;;;;;;4994580;28;20200;-81
2023/01/05 02:50:59;;;;;;;2.13;0.90;;;10.00;99.90;;;;;;4993393;28;20257;-81
2023/01/05 02:53:46;;;;;;;4.80;1.23;;;9.90;99.90;;;;;;4994388;28;20183;-82
2023/01/05 02:56:19;;;;;;;3.80;1.10;;;10.00;99.90;;;;;;4993844;28;20182;-84
2023/01/05 02:58:50;;;;;;;3.97;1.40;;;10.00;99.90;;;;;;4993067;28;20206;-81
2023/01/05 03:01:16;;;;;;;4.90;1.10;;;9.90;99.90;;;;;;4994596;28;20516;-83
2023/01/05 03:03:51;;;;;;;5.07;1.30;;;10.00;99.90;;;;;;4993784;28;20242;-81
2023/01/05 03:06:21;;;;;;;5.30;1.60;;;9.90;99.90;;;;;;4993169;28;20257;-81
2023/01/05 03:09:00;;;;;;;4.30;1.37;;;9.90;99.90;;;;;;4992722;28;20231;-81
2023/01/05 03:15:07;;;;;;;4.10;1.63;;;9.80;99.90;;;;;;4994378;28;20169;-80
2023/01/05 03:17:40;;;;;;;4.77;1.43;;;9.90;99.90;;;;;;4992741;28;20200;-82
2023/01/05 03:20:07;;;;;;;6.47;1.50;;;9.90;99.90;;;;;;4994647;28;20649;-81
2023/01/05 03:37:00;;;;;;;8.80;1.70;;;9.70;99.90;;;;;;4994501;28;20230;-81
2023/01/05 03:39:28;;;;;;;6.97;1.60;;;9.60;99.90;;;;;;4994139;28;20210;-84
2023/01/05 03:41:55;;;;;;;5.33;1.50;;;9.60;99.90;;;;;;4993362;28;20179;-81
2023/01/05 03:44:21;;;;;;;6.80;1.47;;;9.60;99.90;;;;;;4992390;28;20178;-81
2023/01/05 03:46:47;;;;;;;5.03;1.53;;;9.60;99.90;;;;;;4992724;28;20203;-81
2023/01/05 03:49:12;;;;;;;7.93;2.00;;;9.50;99.90;;;;;;4994199;28;20175;-81
2023/01/05 03:51:38;;;;;;;6.73;1.77;;;9.40;99.90;;;;;;4992592;28;20180;-81
2023/01/05 03:54:04;;;;;;;6.83;1.77;;;9.40;99.90;;;;;;4992204;28;20183;-81
2023/01/05 03:56:29;;;;;;;11.37;2.17;;;9.50;99.90;;;;;;4992822;28;20208;-81
2023/01/05 03:58:55;;;;;;;7.10;1.80;;;9.40;99.90;;;;;;4993848;28;20192;-81
2023/01/05 04:01:20;;;;;;;5.30;1.50;;;9.40;99.90;;;;;;4994063;28;20173;-82
2023/01/05 04:03:46;;;;;;;5.67;2.03;;;9.40;99.90;;;;;;4992334;28;20187;-81
2023/01/05 04:06:11;;;;;;;6.73;2.00;;;9.40;99.90;;;;;;4992487;28;20217;-81
2023/01/05 04:08:37;;;;;;;5.57;1.40;;;9.40;99.90;;;;;;4992974;28;20202;-81
2023/01/05 04:11:11;;;;;;;7.43;1.80;;;9.30;99.90;;;;;;4994097;28;20206;-82
2023/01/05 04:13:36;;;;;;;7.43;1.77;;;9.40;99.90;;;;;;4993659;28;20326;-84
2023/01/05 04:16:02;;;;;;;10.83;2.53;;;9.40;99.90;;;;;;4997174;28;20183;-81
2023/01/05 04:18:28;;;;;;;7.07;1.80;;;9.30;99.90;;;;;;4998287;28;20206;-82
2023/01/05 04:20:54;;;;;;;4.53;1.57;;;9.40;99.90;;;;;;4996519;28;20185;-81
2023/01/05 04:23:20;;;;;;;7.20;2.10;;;9.30;99.90;;;;;;4997330;28;20187;-82
2023/01/05 04:25:46;;;;;;;10.50;2.13;;;9.30;99.90;;;;;;4997572;28;20218;-83
2023/01/05 04:28:12;;;;;;;6.47;1.77;;;9.30;99.90;;;;;;4998030;28;20575;-82
2023/01/05 04:30:37;;;;;;;5.73;1.77;;;9.30;99.90;;;;;;4998065;28;20178;-84
2023/01/05 04:33:03;;;;;;;8.77;1.97;;;9.20;99.90;;;;;;4997433;28;20190;-81
2023/01/05 04:35:28;;;;;;;7.87;2.00;;;9.20;99.90;;;;;;4996808;28;20179;-81
2023/01/05 04:37:54;;;;;;;9.07;1.97;;;9.20;99.90;;;;;;4997199;28;20201;-82
2023/01/05 04:40:20;;;;;;;11.37;2.23;;;9.10;99.90;;;;;;4998308;28;20181;-82
2023/01/05 04:42:46;;;;;;;7.73;1.73;;;9.10;99.90;;;;;;4997727;28;20171;-82
2023/01/05 04:45:12;;;;;;;5.63;2.10;;;9.10;99.90;;;;;;4998487;28;20211;-82
2023/01/05 04:47:37;;;;;;;7.77;1.70;;;9.00;99.90;;;;;;5000010;28;20700;-82
2023/01/05 04:50:03;;;;;;;7.30;2.10;;;9.00;99.90;;;;;;4998932;28;20174;-83
2023/01/05 04:52:29;;;;;;;4.43;1.53;;;8.90;99.90;;;;;;4998578;28;20182;-83
2023/01/05 04:54:54;;;;;;;8.07;2.00;;;8.90;99.90;;;;;;4999325;28;20177;-82
2023/01/05 04:57:20;;;;;;;8.40;1.97;;;8.90;99.90;;;;;;5000118;28;20218;-82
2023/01/05 04:59:45;;;;;;;7.70;2.40;;;8.80;99.90;;;;;;5000082;28;20205;-82
2023/01/05 05:02:11;;;;;;;8.67;2.27;;;8.80;99.90;;;;;;5000232;28;20174;-83
2023/01/05 05:04:36;;;;;;;6.20;1.63;;;8.80;99.90;;;;;;4998002;28;20178;-82
2023/01/05 05:07:02;;;;;;;4.27;1.80;;;8.70;99.90;;;;;;4999630;28;20215;-82
2023/01/05 05:09:27;;;;;;;6.43;1.67;;;8.70;99.90;;;;;;4998133;28;20186;-82
2023/01/05 05:11:53;;;;;;;9.53;2.17;;;8.60;99.90;;;;;;4998710;28;20175;-83
2023/01/05 05:14:18;;;;;;;8.33;1.80;;;8.60;99.90;;;;;;4996153;28;20596;-82
2023/01/05 05:16:44;;;;;;;9.73;2.00;;;8.60;99.90;;;;;;4995089;28;20226;-81
2023/01/05 05:19:09;;;;;;;7.20;1.80;;;8.70;99.90;;;;;;4995332;28;20178;-82
2023/01/05 05:21:35;;;;;;;7.00;1.83;;;8.70;99.90;;;;;;4995053;28;20190;-82
2023/01/05 05:24:01;;;;;;;8.47;2.00;;;8.70;99.90;;;;;;4994472;28;20243;-81
2023/01/05 05:26:26;;;;;;;8.67;1.67;;;8.70;99.90;;;;;;4996057;28;20210;-81
2023/01/05 05:28:52;;;;;;;5.67;1.73;;;8.80;99.90;;;;;;4995228;28;20218;-84
2023/01/05 05:31:17;;;;;;;6.00;1.83;;;8.80;99.90;;;;;;4995317;28;20203;-81
2023/01/05 05:33:43;;;;;;;9.33;2.17;;;8.80;99.90;;;;;;4994465;28;20200;-82
2023/01/05 05:36:09;;;;;;;6.40;1.90;;;8.70;99.90;;;;;;4996208;28;20188;-82
2023/01/05 05:38:34;;;;;;;9.07;2.00;;;8.70;99.90;;;;;;4994538;28;20204;-82
2023/01/05 05:41:00;;;;;;;6.70;2.17;;;8.70;99.90;;;;;;4994766;28;20187;-81
2023/01/05 05:43:25;;;;;;;8.07;2.10;;;8.70;99.90;;;;;;4995635;28;20562;-81
2023/01/05 05:45:51;;;;;;;8.03;2.00;;;8.70;99.90;;;;;;4995665;28;20297;-81
2023/01/05 05:48:17;;;;;;;6.00;1.70;;;8.70;99.90;;;;;;4994691;28;20204;-84
2023/01/05 05:50:44;;;;;;;10.97;2.27;;;8.70;99.90;;;;;;4995790;28;20211;-82
2023/01/05 05:53:09;;;;;;;6.77;1.90;;;8.70;99.90;;;;;;4994078;28;20188;-81
2023/01/05 05:55:35;;;;;;;5.63;1.83;;;8.70;99.90;;;;;;4995876;28;20549;-84
2023/01/05 05:58:00;;;;;;;4.40;1.60;;;8.70;99.90;;;;;;4994104;28;20199;-82
2023/01/05 06:00:26;;;;;;;4.67;1.90;;;8.70;99.90;;;;;;4994442;28;20188;-81
2023/01/05 06:02:52;;;;;;;8.33;2.10;;;8.60;99.90;;;;;;4994153;28;20176;-82
2023/01/05 06:05:17;;;;;;;9.13;2.00;;;8.70;99.90;;;;;;4994227;28;20578;-84
2023/01/05 06:07:43;;;;;;;5.37;1.70;;;8.70;99.90;;;;;;4994186;28;20260;-80
2023/01/05 06:10:09;;;;;;;9.73;2.00;;;8.70;99.90;;;;;;4993646;28;20189;-80
2023/01/05 06:12:34;;;;;;;6.50;1.77;;;8.70;99.90;;;;;;4994291;28;20180;-80
2023/01/05 06:15:00;;;;;;;4.37;1.70;;;8.80;99.90;;;;;;4992831;28;20178;-83
2023/01/05 06:17:25;;;;;;;7.33;1.93;;;8.80;99.90;;;;;;4993187;28;20199;-79
2023/01/05 06:19:51;;;;;;;7.97;1.90;;;8.80;99.90;;;;;;4993150;28;20273;-80
2023/01/05 06:22:16;;;;;;;6.37;2.03;;;8.80;99.90;;;;;;4993701;28;20173;-80
2023/01/05 06:24:42;;;;;;;9.57;2.50;;;8.90;99.90;;;;;;4992967;28;20189;-80
2023/01/05 06:27:07;;;;;;;7.80;1.80;;;8.80;99.90;;;;;;5020454;22;20219;-76
2023/01/05 06:29:33;;;;;;;9.37;2.27;;;8.80;99.90;;;;;;5010854;28;20204;-78
2023/01/05 06:31:58;;;;;;;11.03;2.07;;;8.80;99.90;;;;;;5012254;28;20177;-79
2023/01/05 06:34:24;;;;;;;5.23;1.80;;;8.80;99.90;;;;;;5011768;28;20208;-77
2023/01/05 06:36:49;;;;;;;9.53;2.07;;;8.70;99.90;;;;;;5013292;28;20185;-78
2023/01/05 06:39:15;;;;;;;7.57;2.13;;;8.80;99.90;;;;;;5011173;28;20196;-77
2023/01/05 06:41:41;;;;;;;7.37;1.80;;;8.80;99.90;;;;;;5013477;28;20188;-79
2023/01/05 06:44:06;;;;;;;9.13;2.57;;;8.90;99.90;;;;;;5011763;28;20199;-79
2023/01/05 06:46:32;;;;;;;6.13;2.10;;;8.90;99.90;;;;;;5013570;28;20231;-78
2023/01/05 06:48:58;;;;;;;7.53;2.00;;;8.80;99.90;;;;;;5013148;28;20204;-78
2023/01/05 06:51:23;;;;;;;9.40;1.97;;;8.80;99.90;;;;;;5011961;28;20276;-80
2023/01/05 06:53:49;;;;;;;8.10;2.30;;;8.70;99.90;;;;;;5011694;28;20184;-79
2023/01/05 06:56:14;;;;;;;5.87;2.10;;;8.70;99.90;;;;;;5013498;28;20186;-79
2023/01/05 06:58:40;;;;;;;11.70;1.97;;;8.70;99.90;;;;;;5012496;28;20286;-80
2023/01/05 07:01:05;;;;;;;5.80;1.93;;;8.70;99.90;;;;;;5012338;28;20200;-77
2023/01/05 07:03:31;;;;;;;6.93;2.13;;;8.70;99.90;;;;;;5011300;28;20173;-77
2023/01/05 07:05:56;;;;;;;9.13;2.00;;;8.80;99.90;;;;;;5011640;28;20203;-79
2023/01/05 07:08:22;;;;;;;4.60;2.00;;;8.80;99.90;;;;;;5012885;28;20194;-77
2023/01/05 07:10:47;;;;;;;7.23;2.10;;;8.80;99.90;;;;;;5011555;28;20186;-77
2023/01/05 07:13:13;;;;;;;5.80;2.03;;;8.80;99.90;;;;;;5012585;28;20177;-78
2023/01/05 07:15:38;;;;;;;5.73;1.80;;;8.70;99.90;;;;;;5012718;28;20272;-77
2023/01/05 07:18:04;;;;;;;8.17;2.33;;;8.70;99.90;;;;;;5012765;28;20214;-77
2023/01/05 07:20:30;;;;;;;7.03;2.10;;;8.70;99.90;;;;;;5011627;28;20185;-77
2023/01/05 07:22:56;;;;;;;6.80;2.30;;;8.60;99.90;;;;;;5012099;28;20185;-78
2023/01/05 07:25:21;;;;;;;7.30;1.70;;;8.70;99.90;;;;;;5013037;28;20196;-78
2023/01/05 07:27:51;;;;;;;7.77;2.57;;;8.60;99.90;;;;;;5012317;28;20219;-79
2023/01/05 07:30:17;;;;;;;8.90;3.40;;;8.60;99.90;;;;;;5011440;28;20259;-78
2023/01/05 07:32:43;;;;;;;9.50;2.50;;;8.60;99.90;;;;;;5012260;28;20334;-77
2023/01/05 07:35:08;;;;;;;7.40;2.17;;;8.60;99.90;;;;;;5011324;28;20174;-77
2023/01/05 07:37:34;;;;;;;8.27;1.80;;;8.60;99.90;;;;;;5012367;28;20654;-77
2023/01/05 07:39:59;;;;;;;8.07;2.43;;;8.60;99.90;;;;;;5011389;28;20268;-79
2023/01/05 07:42:25;;;;;;;11.07;3.30;;;8.50;99.90;;;;;;5011989;28;20170;-77
2023/01/05 07:44:51;;;;;;;6.23;1.73;;;8.50;99.90;;;;;;5011166;28;20174;-78
2023/01/05 07:47:17;;;;;;;8.93;2.53;;;8.60;99.90;;;;;;5012363;28;20213;-78
2023/01/05 07:49:42;;;;;;;11.17;2.33;;;8.50;99.90;;;;;;5013463;28;20544;-81
2023/01/05 07:52:08;;;;;;;7.70;2.17;;;8.50;99.90;;;;;;5019373;28;20171;-76
2023/01/05 07:54:34;;;;;;;7.73;2.20;;;8.60;99.90;;;;;;5019111;28;20180;-74
2023/01/05 07:57:00;;;;;;;10.10;2.53;;;8.60;99.90;;;;;;5026891;28;20212;-76
2023/01/05 07:59:25;;;;;;;8.77;3.17;;;8.70;99.90;;;;;;5020885;28;20204;-76
2023/01/05 08:01:51;;;;;;;6.93;2.13;;;8.70;99.90;;;;;;5018823;28;20183;-76
2023/01/05 08:04:16;;;;;;;7.90;2.10;;;8.70;99.90;;;;;;5038085;28;20178;-77
2023/01/05 08:06:42;;;;;;;7.90;2.40;;;8.70;99.90;;;;;;5037115;28;20205;-76
2023/01/05 08:11:51;;;;;;;7.87;2.00;;;8.60;99.90;;;;;;5037405;28;20649;-77
2023/01/05 08:14:17;;;;;;;8.07;2.10;;;8.60;99.90;;;;;;5035965;28;20171;-77
2023/01/05 08:16:42;;;;;;;7.50;2.00;;;8.60;99.90;;;;;;5037897;28;20548;-74
2023/01/05 08:19:09;;;;;;;7.70;1.90;;;8.60;99.90;;;;;;5038217;28;20258;-77
2023/01/05 08:21:35;;;;;;;8.27;2.20;;;8.60;99.90;;;;;;5037051;28;20188;-76
2023/01/05 08:24:00;;;;;;;8.33;2.10;;;8.50;99.90;;;;;;5037823;28;20182;-76
2023/01/05 08:26:26;;;;;;;7.53;2.13;;;8.50;99.90;;;;;;5037261;28;20204;-77
2023/01/05 08:28:52;;;;;;;7.93;2.80;;;8.50;99.90;;;;;;5037002;28;20259;-76
2023/01/05 08:31:25;;;;;;;7.67;2.60;;;8.50;99.90;;;;;;5038449;28;20198;-78
2023/01/05 08:33:54;;;;;;;6.40;2.00;;;8.50;99.90;;;;;;5037847;28;20291;-76
2023/01/05 08:36:19;;;;;;;6.27;2.53;;;8.60;99.90;;;;;;5038210;28;20546;-76
2023/01/05 08:38:49;;;;;;;6.47;2.23;;;8.60;99.90;;;;;;5038245;28;20749;-76
2023/01/05 08:41:17;;;;;;;6.20;2.53;;;8.70;99.90;;;;;;5036862;28;20680;-76
2023/01/05 08:43:42;;;;;;;9.27;2.90;;;8.70;99.90;;;;;;5036589;28;20179;-77
2023/01/05 08:46:08;;;;;;;7.70;2.40;;;8.70;99.90;;;;;;5036843;28;20200;-77
2023/01/05 08:48:34;;;;;;;7.23;2.10;;;8.70;99.90;;;;;;5037949;28;20196;-76
2023/01/05 08:51:02;;;;;;;7.43;2.20;;;8.80;99.90;;;;;;5036654;28;20169;-77
2023/01/05 08:53:28;;;;;;;7.20;2.60;;;8.80;99.90;;;;;;5037320;28;20540;-77
2023/01/05 08:55:54;;;;;;;12.27;4.43;;;8.80;99.90;;;;;;5038259;28;20186;-76
2023/01/05 08:58:19;;;;;;;9.23;2.87;;;8.90;99.90;;;;;;5037922;28;20207;-77
2023/01/05 09:00:45;;;;;;;6.23;3.17;;;8.90;99.90;;;;;;5035996;28;20196;-77
2023/01/05 09:03:10;;;;;;;10.03;2.40;;;8.90;99.90;;;;;;5032395;28;20187;-77
2023/01/05 09:05:36;;;;;;;8.00;2.20;;;8.90;99.90;;;;;;5033500;28;20205;-76
2023/01/05 09:08:01;;;;;;;6.77;2.10;;;9.00;99.90;;;;;;5033753;28;20207;-77
2023/01/05 09:10:27;;;;;;;7.03;2.23;;;8.90;99.90;;;;;;5032629;28;20188;-78
2023/01/05 09:12:52;;;;;;;5.37;2.00;;;8.90;99.90;;;;;;5034240;28;20186;-77
2023/01/05 09:15:18;;;;;;;4.53;2.20;;;8.90;99.90;;;;;;5034627;28;20178;-76
2023/01/05 09:17:43;;;;;;;7.87;2.60;;;8.80;99.90;;;;;;5033118;28;20263;-77
2023/01/05 09:20:09;;;;;;;9.20;2.20;;;8.80;99.90;;;;;;5033216;28;20634;-77
2023/01/05 09:22:35;;;;;;;5.93;2.10;;;8.90;99.90;;;;;;5034307;28;20181;-77
2023/01/05 09:25:01;;;;;;;9.27;4.10;;;8.80;99.90;;;;;;5033435;28;20186;-77
2023/01/05 09:27:27;;;;;;;7.07;2.50;;;8.80;99.90;;;;;;5034547;28;20299;-76
2023/01/05 09:29:52;;;;;;;6.47;2.50;;;8.80;99.90;;;;;;5034387;28;20252;-77
2023/01/05 09:32:18;;;;;;;8.30;4.00;;;8.90;99.90;;;;;;5032557;28;20177;-78
2023/01/05 09:34:43;;;;;;;11.70;5.87;;;8.90;99.90;;;;;;5033254;28;20188;-76
2023/01/05 09:37:09;;;;;;;9.27;3.70;;;8.90;99.90;;;;;;5032913;28;20177;-76
2023/01/05 09:39:35;;;;;;;10.43;3.10;;;9.00;99.90;;;;;;5032953;28;20181;-77
2023/01/05 09:42:04;;;;;;;5.77;2.57;;;9.10;99.90;;;;;;5032993;28;20205;-77
2023/01/05 09:44:44;;;;;;;12.80;4.20;;;9.10;99.90;;;;;;5032290;28;20178;-76
2023/01/05 09:47:36;;;;;;;9.93;3.80;;;9.10;99.90;;;;;;5032891;28;20215;-76
2023/01/05 09:50:05;;;;;;;5.33;3.30;;;9.20;99.90;;;;;;5032843;28;20716;-77
2023/01/05 09:52:30;;;;;;;11.90;5.70;;;9.20;99.90;;;;;;5032079;28;20665;-76
2023/01/05 09:54:56;;;;;;;7.10;3.73;;;9.20;99.90;;;;;;5032681;28;20174;-77
2023/01/05 09:57:26;;;;;;;7.03;2.43;;;9.20;99.90;;;;;;5033583;28;20564;-76
2023/01/05 09:59:59;;;;;;;6.70;3.33;;;9.20;99.90;;;;;;5032584;28;20173;-77
2023/01/05 10:02:51;;;;;;;6.83;2.60;;;9.20;99.90;;;;;;5032381;28;20185;-76
2023/01/05 10:05:17;;;;;;;4.90;2.20;;;9.20;99.90;;;;;;5031675;28;20186;-76
2023/01/05 10:08:09;;;;;;;3.67;1.90;;;9.20;99.90;;;;;;5032372;28;20667;-76
2023/01/05 10:13:39;;;;;;;6.63;2.00;;;9.10;99.90;;;;;;5033033;28;20180;-76
2023/01/05 10:16:05;;;;;;;4.70;2.03;;;9.10;99.90;;;;;;5033709;28;20188;-75
2023/01/05 10:18:33;;;;;;;3.80;1.77;;;9.20;99.90;;;;;;5032350;28;20259;-73
2023/01/05 10:21:09;;;;;;;3.80;1.50;;;9.10;99.90;;;;;;5032315;28;20173;-77
2023/01/05 10:23:44;;;;;;;5.37;2.20;;;9.10;99.90;;;;;;5032861;28;20181;-76
2023/01/05 10:26:35;;;;;;;3.90;1.57;;;9.10;99.90;;;;;;5033418;28;20320;-77
2023/01/05 10:29:10;;;;;;;5.47;2.20;;;9.10;99.90;;;;;;5013802;28;20221;-76
2023/01/05 10:31:49;;;;;;;8.27;3.50;;;9.20;99.90;;;;;;5028468;28;20185;-76
2023/01/05 10:34:21;;;;;;;10.90;4.20;;;9.20;99.90;;;;;;5012659;28;20182;-76
2023/01/05 10:36:49;;;;;;;14.03;6.10;;;9.20;99.90;;;;;;5010213;28;20185;-74
2023/01/05 10:39:18;;;;;;;9.33;3.40;;;9.30;99.90;;;;;;5028842;28;20236;-77
2023/01/05 10:41:57;;;;;;;9.47;3.53;;;9.40;99.90;;;;;;5028334;28;20182;-78
2023/01/05 10:44:41;;;;;;;10.13;4.30;;;9.50;99.90;;;;;;5012800;28;20208;-77
2023/01/05 10:47:09;;;;;;;9.23;3.30;;;9.50;99.90;;;;;;5028353;28;20681;-78
2023/01/05 10:49:36;;;;;;;5.03;2.50;;;9.50;99.90;;;;;;5013471;28;20209;-77
2023/01/05 10:52:02;;;;;;;5.63;2.30;;;9.50;99.90;;;;;;5013031;28;20634;-79
2023/01/05 10:54:42;;;;;;;9.23;3.13;;;9.50;99.90;;;;;;5013025;28;20192;-78
2023/01/05 10:57:31;;;;;;;8.83;3.50;;;9.50;99.90;;;;;;5011444;28;20212;-77
2023/01/05 11:00:13;;;;;;;9.43;4.00;;;9.50;99.90;;;;;;5011482;28;20714;-75
2023/01/05 11:02:57;;;;;;;7.27;3.20;;;9.50;99.90;;;;;;5027753;28;20719;-77
2023/01/05 11:05:29;;;;;;;5.80;2.57;;;9.50;99.90;;;;;;5012953;28;20200;-77
2023/01/05 11:07:58;;;;;;;6.30;2.27;;;9.50;99.90;;;;;;5011899;28;20205;-77
2023/01/05 11:10:48;;;;;;;6.17;2.23;;;9.60;99.90;;;;;;5012959;28;20177;-75
2023/01/05 11:13:31;;;;;;;5.77;2.40;;;9.60;99.90;;;;;;5012865;28;20168;-77
2023/01/05 11:16:20;;;;;;;7.40;2.57;;;9.60;99.90;;;;;;5027498;28;20174;-80
2023/01/05 11:18:52;;;;;;;8.43;2.97;;;9.60;99.90;;;;;;5012810;28;20683;-78
2023/01/05 11:21:19;;;;;;;7.53;3.40;;;9.60;99.90;;;;;;5012994;28;20176;-79
2023/01/05 11:23:50;;;;;;;7.00;2.90;;;9.70;99.90;;;;;;5011973;28;20656;-78
2023/01/05 11:26:21;;;;;;;4.50;2.23;;;9.70;99.90;;;;;;5013061;28;20589;-79
2023/01/05 11:28:59;;;;;;;8.93;2.17;;;9.60;99.90;;;;;;5028954;28;20210;-80
2023/01/05 11:31:41;;;;;;;6.07;2.10;;;9.70;99.90;;;;;;5014054;28;20167;-80
2023/01/05 11:34:19;;;;;;;5.63;2.60;;;9.70;99.90;;;;;;5013541;28;20181;-80
2023/01/05 11:36:51;;;;;;;6.27;2.17;;;9.70;99.90;;;;;;5013096;28;20174;-77
2023/01/05 11:39:26;;;;;;;6.50;2.53;;;9.70;99.90;;;;;;5012595;28;20190;-77
2023/01/05 11:42:17;;;;;;;8.67;2.20;;;9.60;99.90;;;;;;5011093;28;20263;-77
2023/01/05 11:44:50;;;;;;;9.43;2.67;;;9.60;99.90;;;;;;5012682;28;20534;-78
2023/01/05 11:47:24;;;;;;;6.97;2.20;;;9.60;99.90;;;;;;5011249;28;20573;-81
2023/01/05 11:50:03;;;;;;;8.47;3.60;;;9.50;99.90;;;;;;5028711;28;20158;-80
2023/01/05 11:52:36;;;;;;;8.57;2.80;;;9.50;99.90;;;;;;5028135;28;20177;-79
2023/01/05 11:55:20;;;;;;;8.73;3.13;;;9.50;99.90;;;;;;5013271;28;20187;-79
2023/01/05 11:57:50;;;;;;;7.00;4.73;;;9.50;99.90;;;;;;5017808;28;20190;-78
2023/01/05 12:00:25;;;;;;;7.70;2.80;;;9.50;99.90;;;;;;5010951;28;20170;-79
2023/01/05 12:03:17;;;;;;;9.37;3.63;;;9.40;99.90;;;;;;5010540;28;20175;-78
2023/01/05 12:40:30;;;;;;;14.27;6.47;;;9.70;99.90;;;;;;5890736;22;20229;-79
2023/01/05 12:43:04;;;;;;;12.67;6.43;;;9.70;99.90;;;;;;5018098;28;20198;-79
2023/01/05 12:45:57;;;;;;;7.77;2.67;;;9.80;99.90;;;;;;5017824;28;20217;-79
2023/01/05 12:48:30;;;;;;;9.83;4.80;;;9.80;99.90;;;;;;5037020;28;20284;-79
2023/01/05 12:51:05;;;;;;;15.67;7.30;;;9.70;99.90;;;;;;5041495;28;20204;-77
2023/01/05 12:53:52;;;;;;;8.50;4.23;;;9.70;99.90;;;;;;5055077;28;20184;-77
2023/01/05 12:56:39;;;;;;;10.90;6.30;;;9.70;99.90;;;;;;5038284;28;20761;-77
2023/01/05 12:59:13;;;;;;;19.50;9.73;;;9.60;99.90;;;;;;5028847;28;20180;-77
2023/01/05 13:02:14;;;;;;;11.77;5.47;;;9.60;99.90;;;;;;5023396;28;20229;-77
2023/01/05 13:04:55;;;;;;;10.10;5.83;;;9.60;99.90;;;;;;5020300;28;20191;-80
2023/01/05 13:07:42;;;;;;;12.07;6.80;;;9.60;99.90;;;;;;5019098;28;20211;-80
2023/01/05 13:10:45;;;;;;;10.70;5.50;;;9.70;99.90;;;;;;5036638;28;20202;-80
2023/01/05 13:13:16;;;;;;;7.53;3.50;;;9.60;99.90;;;;;;5019503;28;20527;-80
2023/01/05 13:16:11;;;;;;;5.40;1.80;;;9.60;99.90;;;;;;5037003;28;20219;-80
2023/01/05 13:18:43;;;;;;;6.83;2.20;;;9.60;99.90;;;;;;5013317;28;20225;-80
2023/01/05 13:21:08;;;;;;;6.37;2.10;;;9.50;99.90;;;;;;5040922;28;20217;-80
2023/01/05 13:23:40;;;;;;;8.33;4.60;;;9.50;99.90;;;;;;5047570;28;20178;-80
2023/01/05 13:26:13;;;;;;;7.67;3.80;;;9.50;99.90;;;;;;5034119;28;20200;-80
2023/01/05 13:28:38;;;;;;;11.43;4.43;;;9.50;99.90;;;;;;5038435;28;20335;-80
2023/01/05 13:31:19;;;;;;;8.10;3.80;;;9.50;99.90;;;;;;5056354;28;20220;-80
2023/01/05 13:34:11;;;;;;;5.90;2.57;;;9.60;99.90;;;;;;5038587;28;20548;-79
2023/01/05 13:36:47;;;;;;;6.07;3.40;;;9.70;99.90;;;;;;5038719;28;20174;-79
2023/01/05 13:39:50;;;;;;;9.33;3.23;;;9.70;99.90;;;;;;5055997;28;20178;-79
2023/01/05 13:42:31;;;;;;;9.83;3.27;;;9.70;99.90;;;;;;5055847;28;20193;-80
2023/01/05 13:44:57;;;;;;;9.83;2.93;;;9.70;99.90;;;;;;5037839;28;20177;-80
2023/01/05 13:47:41;;;;;;;8.77;3.17;;;9.70;99.90;;;;;;5037017;28;20289;-81
2023/01/05 13:50:37;;;;;;;9.63;3.20;;;9.70;99.90;;;;;;5037744;28;20190;-79
2023/01/05 13:53:10;;;;;;;7.73;3.03;;;9.70;99.90;;;;;;5055473;28;20164;-80
2023/01/05 13:55:45;;;;;;;12.03;3.17;;;9.70;99.90;;;;;;5038037;28;20179;-79
2023/01/05 13:58:30;;;;;;;11.30;3.70;;;9.70;99.90;;;;;;5056033;28;20223;-81
2023/01/05 14:00:56;;;;;;;8.77;3.60;;;9.70;99.90;;;;;;5037217;28;20201;-80
2023/01/05 14:03:28;;;;;;;10.63;3.20;;;9.70;99.90;;;;;;5038368;28;20265;-80
2023/01/05 14:05:56;;;;;;;11.77;3.07;;;9.70;99.90;;;;;;5037389;28;20200;-80
2023/01/05 14:08:47;;;;;;;8.27;2.97;;;9.70;99.90;;;;;;5055528;28;20201;-79
2023/01/05 14:11:19;;;;;;;9.90;3.10;;;9.70;99.90;;;;;;5055203;28;20185;-79
2023/01/05 14:13:45;;;;;;;8.93;3.10;;;9.70;99.90;;;;;;5055799;28;20177;-81
2023/01/05 14:16:38;;;;;;;9.57;3.30;;;9.70;99.90;;;;;;5055165;28;20243;-85
2023/01/05 14:19:22;;;;;;;9.93;2.80;;;9.70;99.90;;;;;;5037175;28;20208;-80
2023/01/05 14:21:47;;;;;;;8.40;2.80;;;9.70;99.90;;;;;;5036733;28;20281;-80